createdAt,value
2023-08-11T00:00:18.052Z,16.28
2023-08-11T00:01:18.508Z,16.43
2023-08-11T00:02:18.899Z,16.33
2023-08-11T00:03:19.382Z,16.32
2023-08-11T00:04:19.764Z,16.35
2023-08-11T00:05:20.218Z,16.35
2023-08-11T00:06:20.621Z,16.32
2023-08-11T00:07:21.051Z,16.38
2023-08-11T00:08:21.486Z,16.43
2023-08-11T00:09:21.982Z,16.38
2023-08-11T00:10:22.348Z,16.43
2023-08-11T00:11:22.775Z,16.42
2023-08-11T00:12:23.205Z,16.46
2023-08-11T00:13:23.639Z,16.38
2023-08-11T00:14:24.084Z,16.41
2023-08-11T00:15:24.542Z,16.36
2023-08-11T00:16:24.928Z,16.38
2023-08-11T00:17:25.401Z,16.38
2023-08-11T00:18:25.794Z,16.42
2023-08-11T00:19:26.224Z,16.49
2023-08-11T00:20:26.651Z,16.46
2023-08-11T00:21:27.080Z,16.36
2023-08-11T00:22:27.519Z,16.42
2023-08-11T00:23:27.946Z,16.35
2023-08-11T00:24:28.374Z,16.32
2023-08-11T00:25:28.818Z,16.35
2023-08-11T00:26:29.238Z,16.36
2023-08-11T00:27:29.668Z,16.36
2023-08-11T00:28:30.104Z,16.36
2023-08-11T00:29:30.526Z,16.39
2023-08-11T00:30:30.963Z,16.35
2023-08-11T00:31:31.453Z,16.36
2023-08-11T00:32:31.851Z,16.32
2023-08-11T00:33:32.261Z,16.28
2023-08-11T00:34:32.679Z,16.24
2023-08-11T00:35:33.129Z,16.29
2023-08-11T00:36:33.546Z,16.29
2023-08-11T00:37:33.973Z,16.29
2023-08-11T00:38:34.403Z,16.28
2023-08-11T00:39:34.830Z,16.20
2023-08-11T00:40:35.275Z,16.24
2023-08-11T00:41:35.697Z,16.23
2023-08-11T00:42:36.132Z,16.26
2023-08-11T00:43:36.554Z,16.16
2023-08-11T00:44:36.988Z,16.20
2023-08-11T00:45:37.457Z,16.24
2023-08-11T00:46:37.840Z,16.21
2023-08-11T00:47:38.297Z,16.26
2023-08-11T00:48:39.335Z,16.26
2023-08-11T00:49:39.132Z,16.15
2023-08-11T00:50:39.566Z,16.20
2023-08-11T00:51:40.015Z,16.12
2023-08-11T00:52:40.432Z,16.20
2023-08-11T00:53:40.857Z,16.16
2023-08-11T00:54:41.295Z,16.28
2023-08-11T00:55:41.719Z,16.26
2023-08-11T00:56:42.149Z,16.20
2023-08-11T00:57:42.583Z,16.16
2023-08-11T00:58:43.008Z,16.23
2023-08-11T00:59:43.464Z,16.17
2023-08-11T01:00:43.873Z,16.20
2023-08-11T01:01:44.331Z,16.23
2023-08-11T01:02:44.798Z,16.20
2023-08-11T01:03:45.162Z,16.13
2023-08-11T01:04:45.618Z,16.21
2023-08-11T01:05:46.023Z,16.13
2023-08-11T01:06:46.468Z,16.13
2023-08-11T01:07:46.884Z,16.15
2023-08-11T01:08:47.314Z,16.13
2023-08-11T01:09:47.755Z,16.15
2023-08-11T01:10:48.191Z,16.15
2023-08-11T01:11:48.624Z,16.04
2023-08-11T01:12:49.044Z,16.12
2023-08-11T01:13:49.467Z,16.13
2023-08-11T01:14:49.913Z,16.13
2023-08-11T01:15:50.335Z,16.13
2023-08-11T01:16:50.782Z,16.16
2023-08-11T01:17:51.209Z,16.15
2023-08-11T01:18:51.625Z,16.08
2023-08-11T01:19:52.048Z,16.13
2023-08-11T01:20:52.476Z,16.04
2023-08-11T01:21:52.914Z,16.04
2023-08-11T01:22:53.343Z,16.09
2023-08-11T01:23:53.772Z,16.08
2023-08-11T01:24:54.199Z,16.00
2023-08-11T01:25:54.645Z,16.04
2023-08-11T01:26:55.064Z,16.04
2023-08-11T01:27:55.516Z,16.04
2023-08-11T01:28:55.926Z,16.08
2023-08-11T01:29:56.351Z,15.97
2023-08-11T01:30:56.798Z,16.02
2023-08-11T01:31:57.216Z,16.04
2023-08-11T01:32:57.665Z,16.01
2023-08-11T01:33:58.072Z,16.08
2023-08-11T01:34:58.502Z,16.00
2023-08-11T01:35:58.934Z,16.02
2023-08-11T01:36:59.365Z,16.01
2023-08-11T01:37:59.807Z,16.00
2023-08-11T01:39:00.228Z,15.97
2023-08-11T01:40:00.677Z,15.98
2023-08-11T01:41:01.161Z,15.98
2023-08-11T01:42:01.526Z,15.97
2023-08-11T01:43:01.964Z,16.01
2023-08-11T01:44:02.378Z,15.92
2023-08-11T01:45:02.807Z,16.00
2023-08-11T01:46:03.268Z,15.97
2023-08-11T01:47:03.680Z,15.94
2023-08-11T01:48:04.129Z,15.98
2023-08-11T01:49:04.591Z,15.97
2023-08-11T01:50:04.963Z,15.95
2023-08-11T01:51:05.390Z,16.00
2023-08-11T01:52:05.828Z,15.95
2023-08-11T01:53:06.253Z,15.98
2023-08-11T01:54:06.683Z,15.94
2023-08-11T01:55:07.113Z,15.95
2023-08-11T01:56:07.554Z,15.91
2023-08-11T01:57:08.181Z,15.90
2023-08-11T01:58:08.402Z,15.97
2023-08-11T01:59:08.832Z,15.94
2023-08-11T02:00:09.261Z,15.91
2023-08-11T02:01:09.694Z,16.00
2023-08-11T02:02:10.136Z,15.98
2023-08-11T02:03:10.617Z,15.94
2023-08-11T02:04:10.984Z,15.94
2023-08-11T02:05:11.429Z,16.08
2023-08-11T02:06:11.847Z,16.04
2023-08-11T02:07:12.276Z,16.02
2023-08-11T02:08:12.707Z,16.01
2023-08-11T02:09:13.145Z,15.98
2023-08-11T02:10:13.579Z,16.02
2023-08-11T02:11:13.997Z,15.98
2023-08-11T02:12:14.423Z,16.09
2023-08-11T02:13:14.863Z,16.16
2023-08-11T02:14:15.284Z,16.05
2023-08-11T02:15:15.717Z,16.16
2023-08-11T02:16:16.182Z,16.02
2023-08-11T02:17:16.572Z,16.12
2023-08-11T02:18:17.037Z,16.15
2023-08-11T02:19:17.432Z,16.13
2023-08-11T02:20:17.866Z,16.15
2023-08-11T02:21:18.295Z,16.16
2023-08-11T02:22:18.723Z,16.16
2023-08-11T02:23:19.152Z,16.00
2023-08-11T02:24:19.593Z,16.13
2023-08-11T02:25:20.029Z,16.10
2023-08-11T02:26:20.485Z,16.13
2023-08-11T02:27:20.872Z,16.16
2023-08-11T02:28:21.310Z,16.24
2023-08-11T02:29:21.738Z,16.21
2023-08-11T02:30:22.172Z,16.21
2023-08-11T02:31:22.611Z,16.24
2023-08-11T02:32:23.020Z,16.24
2023-08-11T02:33:23.462Z,16.21
2023-08-11T02:34:23.889Z,16.12
2023-08-11T02:35:24.322Z,16.23
2023-08-11T02:36:24.744Z,16.21
2023-08-11T02:37:25.175Z,16.29
2023-08-11T02:38:25.603Z,16.38
2023-08-11T02:39:26.035Z,16.39
2023-08-11T02:40:26.469Z,16.35
2023-08-11T02:41:26.900Z,16.35
2023-08-11T02:42:27.339Z,16.38
2023-08-11T02:43:27.759Z,16.29
2023-08-11T02:44:28.187Z,16.35
2023-08-11T02:45:28.625Z,16.29
2023-08-11T02:46:29.052Z,16.28
2023-08-11T02:47:29.483Z,16.21
2023-08-11T02:48:29.910Z,16.23
2023-08-11T02:49:30.337Z,16.21
2023-08-11T02:50:30.806Z,16.29
2023-08-11T02:51:31.210Z,16.28
2023-08-11T02:52:31.631Z,16.32
2023-08-11T02:53:32.073Z,16.31
2023-08-11T02:54:32.490Z,16.24
2023-08-11T02:55:32.918Z,16.20
2023-08-11T02:56:33.351Z,16.21
2023-08-11T02:57:33.781Z,16.28
2023-08-11T02:58:34.212Z,16.31
2023-08-11T02:59:34.637Z,16.31
2023-08-11T03:00:35.068Z,16.31
2023-08-11T03:01:35.582Z,16.28
2023-08-11T03:02:35.989Z,16.36
2023-08-11T03:03:36.404Z,16.36
2023-08-11T03:04:36.787Z,16.31
2023-08-11T03:05:37.221Z,16.31
2023-08-11T03:06:37.666Z,16.33
2023-08-11T03:07:38.079Z,16.33
2023-08-11T03:08:38.510Z,16.36
2023-08-11T03:09:38.942Z,16.39
2023-08-11T03:10:46.920Z,16.43
2023-08-11T03:11:39.813Z,16.42
2023-08-11T03:12:40.230Z,16.33
2023-08-11T03:13:40.667Z,16.39
2023-08-11T03:14:41.092Z,16.35
2023-08-11T03:15:41.530Z,16.36
2023-08-11T03:16:41.949Z,16.38
2023-08-11T03:17:42.412Z,16.43
2023-08-11T03:18:42.837Z,16.42
2023-08-11T03:19:43.246Z,16.42
2023-08-11T03:20:43.673Z,16.53
2023-08-11T03:21:44.101Z,16.51
2023-08-11T03:22:44.603Z,16.47
2023-08-11T03:23:44.979Z,16.51
2023-08-11T03:24:45.414Z,16.64
2023-08-11T03:25:45.840Z,16.61
2023-08-11T03:26:46.263Z,16.64
2023-08-11T03:27:46.686Z,16.61
2023-08-11T03:28:47.115Z,16.56
2023-08-11T03:29:47.545Z,16.51
2023-08-11T03:30:47.982Z,16.58
2023-08-11T03:31:48.504Z,16.50
2023-08-11T03:32:48.912Z,16.49
2023-08-11T03:33:49.308Z,16.39
2023-08-11T03:34:49.711Z,16.54
2023-08-11T03:35:50.130Z,16.49
2023-08-11T03:36:50.559Z,16.50
2023-08-11T03:37:50.992Z,16.51
2023-08-11T03:38:51.437Z,16.47
2023-08-11T03:39:51.859Z,16.54
2023-08-11T03:40:52.318Z,16.56
2023-08-11T03:41:52.713Z,16.57
2023-08-11T03:42:53.142Z,16.58
2023-08-11T03:43:53.571Z,16.61
2023-08-11T03:44:54.009Z,16.58
2023-08-11T03:45:54.432Z,16.66
2023-08-11T03:46:54.943Z,16.54
2023-08-11T03:47:55.356Z,16.56
2023-08-11T03:48:55.724Z,16.64
2023-08-11T03:49:56.155Z,16.54
2023-08-11T03:50:56.594Z,16.60
2023-08-11T03:51:57.062Z,16.47
2023-08-11T03:52:57.449Z,16.61
2023-08-11T03:53:58.689Z,16.49
2023-08-11T03:54:58.306Z,16.53
2023-08-11T03:55:58.769Z,16.43
2023-08-11T03:56:59.168Z,16.42
2023-08-11T03:57:59.632Z,16.46
2023-08-11T03:59:00.034Z,16.43
2023-08-11T04:00:00.463Z,16.51
2023-08-11T04:01:00.906Z,16.41
2023-08-11T04:02:01.320Z,16.47
2023-08-11T04:03:01.834Z,16.50
2023-08-11T04:04:02.180Z,16.36
2023-08-11T04:05:02.609Z,16.43
2023-08-11T04:06:03.038Z,16.43
2023-08-11T04:07:03.626Z,16.50
2023-08-11T04:08:03.891Z,16.51
2023-08-11T04:09:04.327Z,16.56
2023-08-11T04:10:04.759Z,16.64
2023-08-11T04:11:05.199Z,16.68
2023-08-11T04:12:05.758Z,16.69
2023-08-11T04:13:06.079Z,16.66
2023-08-11T04:14:06.480Z,16.71
2023-08-11T04:15:06.922Z,16.76
2023-08-11T04:16:07.352Z,16.74
2023-08-11T04:17:07.770Z,16.81
2023-08-11T04:18:08.231Z,16.79
2023-08-11T04:19:08.879Z,16.79
2023-08-11T04:20:09.070Z,16.81
2023-08-11T04:21:09.493Z,16.78
2023-08-11T04:22:10.138Z,16.79
2023-08-11T04:23:10.356Z,16.84
2023-08-11T04:24:10.790Z,16.86
2023-08-11T04:25:11.218Z,16.97
2023-08-11T04:26:11.676Z,17.01
2023-08-11T04:27:12.095Z,17.04
2023-08-11T04:28:12.507Z,17.08
2023-08-11T04:29:12.938Z,17.08
2023-08-11T04:30:13.458Z,17.12
2023-08-11T04:31:13.874Z,17.15
2023-08-11T04:32:14.227Z,17.30
2023-08-11T04:33:14.707Z,17.15
2023-08-11T04:34:15.084Z,17.27
2023-08-11T04:35:15.535Z,17.30
2023-08-11T04:36:15.959Z,17.27
2023-08-11T04:37:16.410Z,17.24
2023-08-11T04:38:16.835Z,17.38
2023-08-11T04:39:17.265Z,17.29
2023-08-11T04:40:17.678Z,17.27
2023-08-11T04:41:18.107Z,17.22
2023-08-11T04:42:18.560Z,17.24
2023-08-11T04:43:18.973Z,17.19
2023-08-11T04:44:19.409Z,17.27
2023-08-11T04:45:19.831Z,17.16
2023-08-11T04:46:20.309Z,17.19
2023-08-11T04:47:20.688Z,17.24
2023-08-11T04:48:21.124Z,17.23
2023-08-11T04:49:21.556Z,17.22
2023-08-11T04:50:21.984Z,17.16
2023-08-11T04:51:22.428Z,17.12
2023-08-11T04:52:22.861Z,17.11
2023-08-11T04:53:23.322Z,17.14
2023-08-11T04:54:23.715Z,17.19
2023-08-11T04:55:24.148Z,17.24
2023-08-11T04:56:24.587Z,17.31
2023-08-11T04:57:25.010Z,17.34
2023-08-11T04:58:25.440Z,17.41
2023-08-11T04:59:25.881Z,17.51
2023-08-11T05:00:26.298Z,17.36
2023-08-11T05:01:26.750Z,17.54
2023-08-11T05:02:27.168Z,17.60
2023-08-11T05:03:27.646Z,17.57
2023-08-11T05:04:28.029Z,17.67
2023-08-11T05:05:28.457Z,17.54
2023-08-11T05:06:28.922Z,17.51
2023-08-11T05:07:29.318Z,17.60
2023-08-11T05:08:29.770Z,17.59
2023-08-11T05:09:30.189Z,17.60
2023-08-11T05:10:30.614Z,17.67
2023-08-11T05:11:31.044Z,17.64
2023-08-11T05:12:31.486Z,17.63
2023-08-11T05:13:31.934Z,17.59
2023-08-11T05:14:32.364Z,17.63
2023-08-11T05:15:32.775Z,17.52
2023-08-11T05:16:33.289Z,17.64
2023-08-11T05:17:33.702Z,17.64
2023-08-11T05:18:43.041Z,17.63
2023-08-11T05:19:34.498Z,17.54
2023-08-11T05:20:34.931Z,17.65
2023-08-11T05:21:35.363Z,17.64
2023-08-11T05:22:35.801Z,17.52
2023-08-11T05:23:36.224Z,17.60
2023-08-11T05:24:36.654Z,17.64
2023-08-11T05:25:37.109Z,17.54
2023-08-11T05:26:37.525Z,17.72
2023-08-11T05:27:37.953Z,17.65
2023-08-11T05:28:38.381Z,17.74
2023-08-11T05:29:38.828Z,17.76
2023-08-11T05:30:39.245Z,17.72
2023-08-11T05:31:39.740Z,17.78
2023-08-11T05:32:40.129Z,17.79
2023-08-11T05:33:40.543Z,17.79
2023-08-11T05:34:40.980Z,17.80
2023-08-11T05:35:41.403Z,17.89
2023-08-11T05:36:41.836Z,17.89
2023-08-11T05:37:42.312Z,17.90
2023-08-11T05:38:42.705Z,18.01
2023-08-11T05:39:43.134Z,18.04
2023-08-11T05:40:43.561Z,18.04
2023-08-11T05:41:44.003Z,18.13
2023-08-11T05:42:44.441Z,18.28
2023-08-11T05:43:44.857Z,18.37
2023-08-11T05:44:45.292Z,18.41
2023-08-11T05:45:45.736Z,18.47
2023-08-11T05:46:46.157Z,18.59
2023-08-11T05:47:46.639Z,18.75
2023-08-11T05:48:47.020Z,18.90
2023-08-11T05:49:47.472Z,19.12
2023-08-11T05:50:47.907Z,19.21
2023-08-11T05:51:48.326Z,19.30
2023-08-11T05:52:48.760Z,19.26
2023-08-11T05:53:50.200Z,19.21
2023-08-11T05:54:49.620Z,19.21
2023-08-11T05:55:50.109Z,19.08
2023-08-11T05:56:50.486Z,19.11
2023-08-11T05:57:50.939Z,19.26
2023-08-11T05:58:51.357Z,19.22
2023-08-11T05:59:51.795Z,19.29
2023-08-11T06:00:52.601Z,19.44
2023-08-11T06:01:52.657Z,19.48
2023-08-11T06:02:53.128Z,19.58
2023-08-11T06:03:53.588Z,19.66
2023-08-11T06:04:53.966Z,19.66
2023-08-11T06:05:54.396Z,19.64
2023-08-11T06:06:54.867Z,19.71
2023-08-11T06:08:05.294Z,19.70
2023-08-11T06:08:55.701Z,19.79
2023-08-11T06:09:56.138Z,19.86
2023-08-11T06:10:56.577Z,19.73
2023-08-11T06:11:57.003Z,19.88
2023-08-11T06:12:57.435Z,19.95
2023-08-11T06:13:57.875Z,20.07
2023-08-11T06:14:58.306Z,20.16
2023-08-11T06:15:58.804Z,20.19
2023-08-11T06:16:59.175Z,20.28
2023-08-11T06:17:59.675Z,20.48
2023-08-11T06:19:00.041Z,20.62
2023-08-11T06:20:00.485Z,20.72
2023-08-11T06:21:00.938Z,20.81
2023-08-11T06:22:01.355Z,20.82
2023-08-11T06:23:01.785Z,20.90
2023-08-11T06:24:02.239Z,21.00
2023-08-11T06:25:02.677Z,20.82
2023-08-11T06:26:03.100Z,20.84
2023-08-11T06:27:03.529Z,20.97
2023-08-11T06:28:03.971Z,20.97
2023-08-11T06:29:04.417Z,20.95
2023-08-11T06:30:04.839Z,20.93
2023-08-11T06:31:05.321Z,20.88
2023-08-11T06:32:05.710Z,20.81
2023-08-11T06:33:06.324Z,20.81
2023-08-11T06:34:06.593Z,20.88
2023-08-11T06:35:07.023Z,20.92
2023-08-11T06:36:07.463Z,21.02
2023-08-11T06:37:08.084Z,20.99
2023-08-11T06:38:08.333Z,21.09
2023-08-11T06:39:08.765Z,21.17
2023-08-11T06:40:09.219Z,21.15
2023-08-11T06:41:09.644Z,21.35
2023-08-11T06:42:10.075Z,21.46
2023-08-11T06:43:10.528Z,21.42
2023-08-11T06:44:10.958Z,21.50
2023-08-11T06:45:11.413Z,21.43
2023-08-11T06:46:11.891Z,21.45
2023-08-11T06:47:12.282Z,21.61
2023-08-11T06:48:12.773Z,21.61
2023-08-11T06:49:13.138Z,21.69
2023-08-11T06:50:13.582Z,21.83
2023-08-11T06:51:14.019Z,21.96
2023-08-11T06:52:14.454Z,21.91
2023-08-11T06:53:14.885Z,21.99
2023-08-11T06:54:15.363Z,21.89
2023-08-11T06:55:15.771Z,21.69
2023-08-11T06:56:16.202Z,21.75
2023-08-11T06:57:16.710Z,21.96
2023-08-11T06:58:17.076Z,22.11
2023-08-11T06:59:17.512Z,22.08
2023-08-11T07:00:17.956Z,22.11
2023-08-11T07:01:18.416Z,21.99
2023-08-11T07:02:18.834Z,21.98
2023-08-11T07:03:19.310Z,21.96
2023-08-11T07:04:19.700Z,21.96
2023-08-11T07:05:20.138Z,22.02
2023-08-11T07:06:20.576Z,21.92
2023-08-11T07:07:21.024Z,21.98
2023-08-11T07:08:21.454Z,21.88
2023-08-11T07:09:21.895Z,21.85
2023-08-11T07:10:22.488Z,21.82
2023-08-11T07:11:22.758Z,21.89
2023-08-11T07:12:23.212Z,21.82
2023-08-11T07:13:23.644Z,21.82
2023-08-11T07:14:24.085Z,21.70
2023-08-11T07:15:24.522Z,21.75
2023-08-11T07:16:24.974Z,21.48
2023-08-11T07:17:25.394Z,21.39
2023-08-11T07:18:25.834Z,21.60
2023-08-11T07:19:26.268Z,21.72
2023-08-11T07:20:26.714Z,21.82
2023-08-11T07:21:27.139Z,21.88
2023-08-11T07:22:27.584Z,21.92
2023-08-11T07:23:28.037Z,21.89
2023-08-11T07:24:28.452Z,21.95
2023-08-11T07:25:28.889Z,22.18
2023-08-11T07:26:29.328Z,22.26
2023-08-11T07:27:29.775Z,22.14
2023-08-11T07:28:30.254Z,22.22
2023-08-11T07:29:30.645Z,22.25
2023-08-11T07:30:31.086Z,22.39
2023-08-11T07:31:31.527Z,22.48
2023-08-11T07:32:31.976Z,22.62
2023-08-11T07:33:32.401Z,22.66
2023-08-11T07:34:32.865Z,22.76
2023-08-11T07:35:33.275Z,22.87
2023-08-11T07:36:33.852Z,23.02
2023-08-11T07:37:34.162Z,23.03
2023-08-11T07:38:34.667Z,23.08
2023-08-11T07:39:35.017Z,23.10
2023-08-11T07:40:35.492Z,23.25
2023-08-11T07:41:35.905Z,23.47
2023-08-11T07:42:36.344Z,23.81
2023-08-11T07:43:36.797Z,23.86
2023-08-11T07:44:37.232Z,23.86
2023-08-11T07:45:37.682Z,23.98
2023-08-11T07:46:38.189Z,24.20
2023-08-11T07:47:38.599Z,24.24
2023-08-11T07:48:39.002Z,24.39
2023-08-11T07:49:39.428Z,24.63
2023-08-11T07:50:39.869Z,24.84
2023-08-11T07:51:40.312Z,25.08
2023-08-11T07:52:40.749Z,25.18
2023-08-11T07:53:41.192Z,25.28
2023-08-11T07:54:41.711Z,25.48
2023-08-11T07:55:42.125Z,25.53
2023-08-11T07:56:42.521Z,25.47
2023-08-11T07:57:42.974Z,25.48
2023-08-11T07:58:43.459Z,25.70
2023-08-11T07:59:43.875Z,25.73
2023-08-11T08:00:44.294Z,25.95
2023-08-11T08:01:44.752Z,26.02
2023-08-11T08:02:45.251Z,26.10
2023-08-11T08:03:48.617Z,26.38
2023-08-11T08:04:46.063Z,26.48
2023-08-11T08:05:46.515Z,26.36
2023-08-11T08:06:47.209Z,26.28
2023-08-11T08:07:47.401Z,26.29
2023-08-11T08:08:47.845Z,26.18
2023-08-11T08:09:48.334Z,26.56
2023-08-11T08:10:48.740Z,26.66
2023-08-11T08:11:49.189Z,26.62
2023-08-11T08:12:49.631Z,26.68
2023-08-11T08:13:50.095Z,26.74
2023-08-11T08:14:50.540Z,26.95
2023-08-11T08:15:50.974Z,27.03
2023-08-11T08:16:51.432Z,27.33
2023-08-11T08:17:51.908Z,26.81
2023-08-11T08:18:52.326Z,27.22
2023-08-11T08:19:52.761Z,27.82
2023-08-11T08:20:53.202Z,28.57
2023-08-11T08:21:53.653Z,29.20
2023-08-11T08:22:54.108Z,29.47
2023-08-11T08:23:54.553Z,29.69
2023-08-11T08:24:55.004Z,29.90
2023-08-11T08:25:55.470Z,30.15
2023-08-11T08:26:55.904Z,30.51
2023-08-11T08:28:05.345Z,30.97
2023-08-11T08:28:56.839Z,31.47
2023-08-11T08:29:57.266Z,32.08
2023-08-11T08:30:57.725Z,32.68
2023-08-11T08:31:58.175Z,33.27
2023-08-11T08:32:58.683Z,32.78
2023-08-11T08:33:59.163Z,32.64
2023-08-11T08:34:59.548Z,33.23
2023-08-11T08:36:00.028Z,33.81
2023-08-11T08:37:00.462Z,34.57
2023-08-11T08:38:00.929Z,35.00
2023-08-11T08:39:01.387Z,34.48
2023-08-11T08:40:01.841Z,34.97
2023-08-11T08:41:02.318Z,34.77
2023-08-11T08:42:02.757Z,35.64
2023-08-11T08:43:03.236Z,36.37
2023-08-11T08:44:03.685Z,36.43
2023-08-11T08:45:04.143Z,36.76
2023-08-11T08:46:04.650Z,37.17
2023-08-11T08:47:05.074Z,37.40
2023-08-11T08:48:05.558Z,36.47
2023-08-11T08:49:05.993Z,35.37
2023-08-11T08:50:06.484Z,34.96
2023-08-11T08:51:06.936Z,34.01
2023-08-11T08:52:07.394Z,35.30
2023-08-11T08:53:07.847Z,36.28
2023-08-11T08:54:08.314Z,36.30
2023-08-11T08:55:08.781Z,36.40
2023-08-11T08:56:09.301Z,36.68
2023-08-11T08:57:10.126Z,36.93
2023-08-11T08:58:10.177Z,37.15
2023-08-11T08:59:10.661Z,36.74
2023-08-11T09:00:11.134Z,36.81
2023-08-11T09:01:11.644Z,37.01
2023-08-11T09:02:12.417Z,37.15
2023-08-11T09:03:12.655Z,37.59
2023-08-11T09:04:13.143Z,37.32
2023-08-11T09:05:13.469Z,37.92
2023-08-11T09:06:13.900Z,37.84
2023-08-11T09:07:14.384Z,37.75
2023-08-11T09:08:14.834Z,37.94
2023-08-11T09:09:15.301Z,38.20
2023-08-11T09:10:15.767Z,38.96
2023-08-11T09:11:16.238Z,38.76
2023-08-11T09:12:16.740Z,38.28
2023-08-11T09:13:17.164Z,38.02
2023-08-11T09:14:17.636Z,38.24
2023-08-11T09:15:18.100Z,38.58
2023-08-11T09:16:18.649Z,38.74
2023-08-11T09:17:19.085Z,39.00
2023-08-11T09:18:19.541Z,39.06
2023-08-11T09:19:19.965Z,39.36
2023-08-11T09:20:20.436Z,39.85
2023-08-11T09:21:20.952Z,39.96
2023-08-11T09:22:21.365Z,39.37
2023-08-11T09:23:23.444Z,38.84
2023-08-11T09:24:22.309Z,38.52
2023-08-11T09:25:22.770Z,38.38
2023-08-11T09:26:23.241Z,37.94
2023-08-11T09:27:23.699Z,37.48
2023-08-11T09:28:24.167Z,37.45
2023-08-11T09:29:24.640Z,37.53
2023-08-11T09:30:25.098Z,36.86
2023-08-11T09:31:25.600Z,36.51
2023-08-11T09:32:27.113Z,36.52
2023-08-11T09:33:26.485Z,36.92
2023-08-11T09:34:26.974Z,36.70
2023-08-11T09:35:27.456Z,36.40
2023-08-11T09:36:27.885Z,35.63
2023-08-11T09:37:29.225Z,36.01
2023-08-11T09:38:28.810Z,36.28
2023-08-11T09:39:29.271Z,36.43
2023-08-11T09:40:29.739Z,36.23
2023-08-11T09:41:30.231Z,35.86
2023-08-11T09:43:32.515Z,34.21
2023-08-11T09:44:31.628Z,33.28
2023-08-11T09:45:32.119Z,32.51
2023-08-11T09:46:33.268Z,31.77
2023-08-11T09:47:33.036Z,31.59
2023-08-11T09:48:33.455Z,31.03
2023-08-11T09:49:55.093Z,31.10
2023-08-11T09:50:34.379Z,32.15
2023-08-11T09:51:34.901Z,33.50
2023-08-11T09:52:35.416Z,33.99
2023-08-11T09:53:35.886Z,34.18
2023-08-11T09:54:45.577Z,33.83
2023-08-11T09:55:57.825Z,34.11
2023-08-11T09:56:37.134Z,34.23
2023-08-11T09:57:37.585Z,32.65
2023-08-11T09:58:38.201Z,32.30
2023-08-11T09:59:38.481Z,32.43
2023-08-11T10:00:38.955Z,30.53
2023-08-11T10:02:00.626Z,31.46
2023-08-11T10:02:40.028Z,31.71
2023-08-11T10:03:40.386Z,31.96
2023-08-11T10:04:40.810Z,31.93
2023-08-11T10:05:41.232Z,31.49
2023-08-11T10:06:41.771Z,30.35
2023-08-11T10:08:03.338Z,28.75
2023-08-11T10:08:42.643Z,27.54
2023-08-11T10:09:43.072Z,28.14
2023-08-11T10:10:43.594Z,28.76
2023-08-11T10:11:43.994Z,29.72
2023-08-11T10:12:44.425Z,31.12
2023-08-11T10:14:06.077Z,32.27
2023-08-11T10:14:46.340Z,32.83
2023-08-11T10:15:45.900Z,33.57
2023-08-11T10:16:46.268Z,34.16
2023-08-11T10:17:46.833Z,35.44
2023-08-11T10:18:47.183Z,35.22
2023-08-11T10:20:08.817Z,35.08
2023-08-11T10:20:48.113Z,35.22
2023-08-11T10:21:48.574Z,33.80
2023-08-11T10:22:49.057Z,32.77
2023-08-11T10:23:49.520Z,33.22
2023-08-11T10:24:50.015Z,32.18
2023-08-11T10:26:11.598Z,31.52
2023-08-11T10:26:50.885Z,31.77
2023-08-11T10:27:51.342Z,32.36
2023-08-11T10:28:51.804Z,34.75
2023-08-11T10:29:52.281Z,36.33
2023-08-11T10:30:52.790Z,37.32
2023-08-11T10:32:14.385Z,38.05
2023-08-11T10:32:54.731Z,38.43
2023-08-11T10:33:54.129Z,36.77
2023-08-11T10:34:54.591Z,36.74
2023-08-11T10:35:55.074Z,35.95
2023-08-11T10:36:55.546Z,36.16
2023-08-11T10:38:17.175Z,33.77
2023-08-11T10:38:56.464Z,33.15
2023-08-11T10:39:58.590Z,33.45
2023-08-11T10:40:57.400Z,31.61
2023-08-11T10:41:57.882Z,30.61
2023-08-11T10:42:58.336Z,31.77
2023-08-11T10:44:20.002Z,33.69
2023-08-11T10:44:59.298Z,35.23
2023-08-11T10:45:59.722Z,34.14
2023-08-11T10:47:00.230Z,35.24
2023-08-11T10:48:00.711Z,35.29
2023-08-11T10:49:01.167Z,34.73
2023-08-11T10:50:22.758Z,34.90
2023-08-11T10:51:02.071Z,35.14
2023-08-11T10:52:02.508Z,35.29
2023-08-11T10:53:02.971Z,36.17
2023-08-11T10:54:03.441Z,36.73
2023-08-11T10:55:03.892Z,37.32
2023-08-11T10:56:25.619Z,37.72
2023-08-11T10:57:04.931Z,37.29
2023-08-11T10:58:06.779Z,37.20
2023-08-11T10:59:05.777Z,36.35
2023-08-11T11:00:06.208Z,37.60
2023-08-11T11:01:06.750Z,37.89
2023-08-11T11:02:28.340Z,38.54
2023-08-11T11:03:07.622Z,39.07
2023-08-11T11:04:08.068Z,39.19
2023-08-11T11:05:08.587Z,36.98
2023-08-11T11:06:09.001Z,35.51
2023-08-11T11:07:09.471Z,32.08
2023-08-11T11:08:31.105Z,30.94
2023-08-11T11:09:10.401Z,31.25
2023-08-11T11:10:10.862Z,31.66
2023-08-11T11:11:11.362Z,31.74
2023-08-11T11:12:12.232Z,33.81
2023-08-11T11:13:12.276Z,34.58
2023-08-11T11:14:33.913Z,34.58
2023-08-11T11:15:13.221Z,34.95
2023-08-11T11:16:13.910Z,34.81
2023-08-11T11:17:14.156Z,36.47
2023-08-11T11:18:14.633Z,37.30
2023-08-11T11:19:15.099Z,37.97
2023-08-11T11:20:36.729Z,38.76
2023-08-11T11:21:16.047Z,39.40
2023-08-11T11:22:16.506Z,39.90
2023-08-11T11:23:16.968Z,40.02
2023-08-11T11:24:17.430Z,39.85
2023-08-11T11:25:17.896Z,39.62
2023-08-11T11:26:39.542Z,38.61
2023-08-11T11:27:18.901Z,39.14
2023-08-11T11:28:19.309Z,39.77
2023-08-11T11:29:19.783Z,39.65
2023-08-11T11:30:20.283Z,38.36
2023-08-11T11:31:20.722Z,37.59
2023-08-11T11:32:42.384Z,38.48
2023-08-11T11:33:21.653Z,38.80
2023-08-11T11:34:22.189Z,39.46
2023-08-11T11:35:22.611Z,39.60
2023-08-11T11:36:23.090Z,38.54
2023-08-11T11:37:23.531Z,36.45
2023-08-11T11:38:45.189Z,34.66
2023-08-11T11:39:24.534Z,32.67
2023-08-11T11:40:24.950Z,31.69
2023-08-11T11:41:25.418Z,31.58
2023-08-11T11:42:25.889Z,32.73
2023-08-11T11:43:26.406Z,32.53
2023-08-11T11:44:48.004Z,33.01
2023-08-11T11:45:27.306Z,33.50
2023-08-11T11:46:27.818Z,33.47
2023-08-11T11:47:28.289Z,32.26
2023-08-11T11:48:28.680Z,30.65
2023-08-11T11:49:30.642Z,29.02
2023-08-11T11:50:50.812Z,28.08
2023-08-11T11:51:30.062Z,27.54
2023-08-11T11:52:30.542Z,27.10
2023-08-11T11:53:30.995Z,27.42
2023-08-11T11:54:31.470Z,27.39
2023-08-11T11:55:31.914Z,27.73
2023-08-11T11:57:03.437Z,28.14
2023-08-11T11:57:32.822Z,28.37
2023-08-11T11:58:33.271Z,28.39
2023-08-11T11:59:33.780Z,28.15
2023-08-11T12:00:34.186Z,28.10
2023-08-11T12:01:34.643Z,28.15
2023-08-11T12:02:56.281Z,28.02
2023-08-11T12:03:35.564Z,27.49
2023-08-11T12:04:36.147Z,27.55
2023-08-11T12:05:36.511Z,27.51
2023-08-11T12:06:36.912Z,27.29
2023-08-11T12:07:37.384Z,27.21
2023-08-11T12:08:58.967Z,27.00
2023-08-11T12:09:38.260Z,26.84
2023-08-11T12:10:38.693Z,26.63
2023-08-11T12:11:39.151Z,26.70
2023-08-11T12:12:39.599Z,26.81
2023-08-11T12:13:40.035Z,26.88
2023-08-11T12:15:01.661Z,26.99
2023-08-11T12:15:40.935Z,27.00
2023-08-11T12:16:41.431Z,26.83
2023-08-11T12:17:41.861Z,26.59
2023-08-11T12:18:42.267Z,26.55
2023-08-11T12:19:42.732Z,26.51
2023-08-11T12:21:04.327Z,26.13
2023-08-11T12:21:43.615Z,25.81
2023-08-11T12:22:44.056Z,25.51
2023-08-11T12:23:44.506Z,25.47
2023-08-11T12:24:44.948Z,25.70
2023-08-11T12:25:45.391Z,25.80
2023-08-11T12:27:06.997Z,26.06
2023-08-11T12:27:46.320Z,26.25
2023-08-11T12:28:46.733Z,25.98
2023-08-11T12:29:47.170Z,25.90
2023-08-11T12:30:47.634Z,26.00
2023-08-11T12:31:48.072Z,26.03
2023-08-11T12:33:09.797Z,26.07
2023-08-11T12:33:49.022Z,25.91
2023-08-11T12:34:49.404Z,25.91
2023-08-11T12:35:49.875Z,25.80
2023-08-11T12:36:50.296Z,25.78
2023-08-11T12:37:50.733Z,25.81
2023-08-11T12:39:12.436Z,25.70
2023-08-11T12:39:51.623Z,25.60
2023-08-11T12:40:52.070Z,25.23
2023-08-11T12:41:52.510Z,25.13
2023-08-11T12:42:52.968Z,25.14
2023-08-11T12:43:53.411Z,25.38
2023-08-11T12:45:15.116Z,25.25
2023-08-11T12:45:54.330Z,25.53
2023-08-11T12:46:54.752Z,25.65
2023-08-11T12:47:55.206Z,25.81
2023-08-11T12:48:55.659Z,25.95
2023-08-11T12:49:56.073Z,26.03
2023-08-11T12:51:17.681Z,26.02
2023-08-11T12:51:56.956Z,26.18
2023-08-11T12:52:57.401Z,25.99
2023-08-11T12:53:58.007Z,26.00
2023-08-11T12:54:58.304Z,25.88
2023-08-11T12:55:58.743Z,25.93
2023-08-11T12:57:20.336Z,26.13
2023-08-11T12:57:59.626Z,26.10
2023-08-11T12:59:00.070Z,26.18